Time;durP1;ratioP1;P1;durP2;ratioP2;P2;SDS_P1;SDS_P2;PMS_P1;PMS_P2;Temp;Humidity;BMP_temperature;BMP_pressure;BME280_temperature;BME280_humidity;BME280_pressure;Samples;Min_cycle;Max_cycle;Signal;HPM_P1;HPM_P2
2022/06/25 00:01:11;;;;;;;9.55;2.42;;;;;;;24.39;43.85;99019.13;5072437;28;20112;-81
2022/06/25 00:03:38;;;;;;;7.38;2.33;;;;;;;24.12;44.79;99025.16;5071332;28;20029;-88
2022/06/25 00:06:04;;;;;;;6.93;2.53;;;;;;;24.13;44.53;99031.50;5071319;28;20081;-82
2022/06/25 00:08:32;;;;;;;4.68;2.45;;;;;;;24.14;44.24;99033.84;5072190;28;20088;-83
2022/06/25 00:10:58;;;;;;;2.65;1.90;;;;;;;24.20;44.48;99046.03;5072374;28;20029;-82
2022/06/25 00:13:23;;;;;;;2.03;1.48;;;;;;;24.03;44.27;99053.72;5071239;28;20382;-82
2022/06/25 00:15:49;;;;;;;1.10;1.00;;;;;;;23.89;44.65;99061.75;5072153;28;20025;-82
2022/06/25 00:18:15;;;;;;;0.93;0.93;;;;;;;24.03;44.36;99052.91;5072273;28;20025;-83
2022/06/25 00:20:43;;;;;;;2.63;0.55;;;;;;;23.66;45.10;99060.00;5070967;28;20021;-82
2022/06/25 00:23:09;;;;;;;0.55;0.30;;;;;;;23.45;45.05;99061.38;5071007;28;20043;-82
2022/06/25 00:25:34;;;;;;;0.45;0.45;;;;;;;23.34;45.26;99064.44;5070866;28;20383;-82
2022/06/25 00:28:00;;;;;;;0.47;0.25;;;;;;;23.48;44.68;99069.63;5070609;28;20033;-85
2022/06/25 00:30:27;;;;;;;0.45;0.40;;;;;;;23.46;44.36;99077.66;5074263;28;20032;-82
2022/06/25 00:32:52;;;;;;;0.22;0.20;;;;;;;23.11;44.69;99076.59;5074523;28;20028;-82
2022/06/25 00:35:18;;;;;;;0.65;0.43;;;;;;;23.47;43.76;99079.22;5075845;28;20024;-81
2022/06/25 00:37:44;;;;;;;1.90;0.43;;;;;;;23.28;44.34;99079.38;5075321;28;20031;-81
2022/06/25 00:40:11;;;;;;;0.20;0.20;;;;;;;23.26;44.19;99080.56;5075617;28;20518;-82
2022/06/25 00:42:37;;;;;;;0.43;0.17;;;;;;;23.21;43.85;99095.03;5074327;28;20471;-81
2022/06/25 00:45:03;;;;;;;0.55;0.20;;;;;;;23.14;43.93;99089.66;5074276;28;20067;-81
2022/06/25 00:47:29;;;;;;;4.32;0.40;;;;;;;23.09;43.74;99086.63;5073954;28;20189;-86
2022/06/25 00:49:54;;;;;;;1.45;0.20;;;;;;;23.06;43.83;99084.72;5074393;28;20039;-82
2022/06/25 00:52:22;;;;;;;0.52;0.45;;;;;;;23.24;43.07;99077.44;5074172;28;20032;-86
2022/06/25 00:55:01;;;;;;;2.45;0.30;;;;;;;23.02;43.29;99086.78;5074091;28;20554;-82
2022/06/25 00:57:29;;;;;;;1.05;0.30;;;;;;;22.99;43.44;99096.81;5075455;28;20025;-87
2022/06/25 01:00:05;;;;;;;0.20;0.17;;;;;;;22.88;43.24;99096.28;5074024;28;20466;-84
2022/06/25 01:02:30;;;;;;;0.20;0.20;;;;;;;22.92;42.83;99099.78;5075403;28;20035;-87
2022/06/25 01:04:56;;;;;;;0.70;0.30;;;;;;;22.95;42.77;99096.13;5075299;28;20402;-82
2022/06/25 01:07:22;;;;;;;0.30;0.30;;;;;;;22.93;42.73;99106.91;5073576;28;20036;-81
2022/06/25 01:09:49;;;;;;;0.15;0.10;;;;;;;22.87;42.54;99114.22;5073791;28;20028;-82
2022/06/25 01:12:15;;;;;;;0.20;0.20;;;;;;;22.64;42.63;99106.78;5073888;28;20029;-84
2022/06/25 01:14:41;;;;;;;0.10;0.10;;;;;;;22.74;42.50;99124.44;5074749;28;20039;-82
2022/06/25 01:17:09;;;;;;;0.73;0.25;;;;;;;22.83;42.05;99136.56;5075061;28;20029;-81
2022/06/25 01:19:36;;;;;;;0.90;0.20;;;;;;;22.68;42.14;99141.69;5073652;28;20071;-82
2022/06/25 01:22:06;;;;;;;0.15;0.15;;;;;;;22.48;42.14;99140.19;5073630;28;20052;-80
2022/06/25 01:24:31;;;;;;;;;;;;;;;22.60;41.97;99148.63;5074002;28;20475;-81
2022/06/25 01:26:57;;;;;;;0.10;0.10;;;;;;;22.37;42.23;99146.00;5073532;28;19958;-81
2022/06/25 01:29:23;;;;;;;0.10;0.10;;;;;;;22.46;42.13;99157.31;5073691;28;20074;-81
2022/06/25 01:31:49;;;;;;;0.88;0.10;;;;;;;22.42;41.95;99157.38;5073432;28;20029;-81
2022/06/25 01:34:14;;;;;;;0.50;0.10;;;;;;;22.33;42.23;99148.06;5073263;28;20028;-83
2022/06/25 01:36:40;;;;;;;0.10;0.10;;;;;;;22.58;41.72;99159.41;5073411;28;20032;-86
2022/06/25 01:39:05;;;;;;;0.40;0.10;;;;;;;22.41;42.06;99153.03;5073282;28;20394;-81
2022/06/25 01:41:31;;;;;;;0.65;0.20;;;;;;;22.26;42.80;99156.56;5072370;28;20021;-80
2022/06/25 01:43:57;;;;;;;0.22;0.10;;;;;;;22.05;43.10;99168.88;5074430;28;20017;-81
2022/06/25 01:46:22;;;;;;;0.93;0.20;;;;;;;22.21;42.89;99154.28;5073155;28;20039;-81
2022/06/25 01:48:49;;;;;;;0.17;0.15;;;;;;;22.00;43.35;99166.63;5073916;28;20048;-81
2022/06/25 01:51:16;;;;;;;0.10;0.10;;;;;;;22.24;42.87;99172.91;5074206;28;20032;-80
2022/06/25 01:53:42;;;;;;;0.52;0.10;;;;;;;22.26;42.83;99171.25;5074260;28;20017;-82
2022/06/25 01:56:08;;;;;;;0.10;0.10;;;;;;;22.21;43.08;99168.97;5072969;28;20082;-81
2022/06/25 01:58:35;;;;;;;0.13;0.13;;;;;;;22.18;42.98;99169.06;5073142;28;20055;-82
2022/06/25 02:01:01;;;;;;;0.10;0.10;;;;;;;22.11;43.28;99170.75;5074473;28;20074;-86
2022/06/25 02:03:26;;;;;;;0.28;0.20;;;;;;;22.35;42.74;99163.09;5074293;28;20025;-81
2022/06/25 02:05:58;;;;;;;0.20;0.20;;;;;;;22.30;42.75;99168.41;5073010;28;20025;-82
2022/06/25 02:08:31;;;;;;;0.52;0.40;;;;;;;22.27;43.12;99186.72;5073729;28;20057;-81
2022/06/25 02:10:58;;;;;;;0.63;0.30;;;;;;;22.36;42.48;99186.91;5073031;28;20031;-81
2022/06/25 02:13:24;;;;;;;0.20;0.20;;;;;;;22.51;42.43;99184.59;5072477;28;20021;-81
2022/06/25 02:15:51;;;;;;;0.68;0.45;;;;;;;22.33;42.72;99187.78;5073809;28;20099;-80
2022/06/25 02:18:16;;;;;;;0.30;0.30;;;;;;;22.33;42.46;99182.22;5073799;28;20028;-87
2022/06/25 02:20:42;;;;;;;0.20;0.20;;;;;;;22.00;43.09;99174.97;5073848;28;20286;-81
2022/06/25 02:23:09;;;;;;;1.25;0.30;;;;;;;22.01;43.12;99187.66;5073711;28;20024;-85
2022/06/25 02:25:35;;;;;;;2.15;0.55;;;;;;;21.96;43.13;99196.47;5072453;28;20025;-81
2022/06/25 02:28:00;;;;;;;0.65;0.45;;;;;;;22.07;42.95;99174.81;5072279;28;20518;-82
2022/06/25 02:30:26;;;;;;;1.00;0.38;;;;;;;21.88;43.22;99199.41;5068637;28;20105;-81
2022/06/25 02:32:52;;;;;;;2.25;0.40;;;;;;;21.94;43.26;99210.03;5053689;28;20033;-88
2022/06/25 02:35:18;;;;;;;0.30;0.30;;;;;;;21.81;43.55;99201.53;5052308;28;20033;-81
2022/06/25 02:37:43;;;;;;;0.47;0.32;;;;;;;21.89;43.43;99198.19;5061184;28;20058;-81
2022/06/25 02:40:10;;;;;;;1.40;0.40;;;;;;;21.67;43.71;99210.91;5073415;28;20471;-82
2022/06/25 02:42:40;;;;;;;0.45;0.40;;;;;;;21.80;43.13;99217.44;5072581;28;20036;-81
2022/06/25 02:45:07;;;;;;;2.25;1.17;;;;;;;21.75;43.23;99231.03;5073474;28;20035;-87
2022/06/25 02:47:33;;;;;;;2.28;0.32;;;;;;;21.62;43.60;99224.53;5071768;28;20048;-82
2022/06/25 02:49:59;;;;;;;1.02;0.57;;;;;;;21.44;44.09;99233.94;5072041;28;20433;-86
2022/06/25 02:52:25;;;;;;;1.83;0.60;;;;;;;21.46;43.90;99248.22;5071608;28;20029;-81
2022/06/25 02:54:50;;;;;;;2.35;1.00;;;;;;;21.31;44.10;99246.84;5072062;28;20028;-87
2022/06/25 03:00:01;;;;;;;3.55;0.68;;;;;;;21.24;43.96;99247.75;5073664;28;20027;-81
2022/06/25 03:02:27;;;;;;;3.65;0.75;;;;;;;21.40;43.59;99260.22;5073008;28;20029;-81
2022/06/25 03:04:54;;;;;;;1.65;0.70;;;;;;;21.62;42.96;99272.56;5071924;28;20409;-81
2022/06/25 03:07:20;;;;;;;2.95;0.90;;;;;;;21.49;43.21;99269.59;5071545;28;20481;-81
2022/06/25 03:09:45;;;;;;;5.20;1.20;;;;;;;21.71;42.88;99288.69;5073103;28;20154;-81
2022/06/25 03:12:12;;;;;;;3.15;0.73;;;;;;;21.75;42.83;99281.06;5071856;28;20074;-83
2022/06/25 03:14:38;;;;;;;1.55;0.70;;;;;;;21.77;42.72;99284.22;5072888;28;20021;-87
2022/06/25 03:17:04;;;;;;;1.77;1.10;;;;;;;21.71;42.89;99294.25;5071613;28;20564;-81
2022/06/25 03:19:30;;;;;;;1.55;0.82;;;;;;;21.64;43.10;99294.38;5071506;28;20055;-83
2022/06/25 03:21:55;;;;;;;2.30;0.82;;;;;;;21.84;42.87;99301.56;5071662;28;20059;-81
2022/06/25 03:24:21;;;;;;;1.77;0.80;;;;;;;21.84;42.83;99303.56;5071838;28;20025;-82
2022/06/25 03:26:47;;;;;;;0.40;0.40;;;;;;;21.91;42.68;99308.19;5071641;28;20031;-81
2022/06/25 03:29:12;;;;;;;2.45;0.90;;;;;;;21.78;42.86;99314.38;5072771;28;20024;-81
2022/06/25 03:31:39;;;;;;;1.15;0.70;;;;;;;21.78;42.96;99314.38;5071258;28;20025;-87
2022/06/25 03:34:05;;;;;;;0.88;0.55;;;;;;;21.72;43.15;99315.28;5072615;28;20025;-81
2022/06/25 03:36:31;;;;;;;1.52;0.70;;;;;;;21.88;42.68;99321.75;5071494;28;20032;-88
2022/06/25 03:38:57;;;;;;;1.70;0.65;;;;;;;21.85;42.79;99325.38;5071416;28;20021;-84
2022/06/25 03:41:37;;;;;;;0.98;0.60;;;;;;;21.45;43.63;99327.19;5071461;28;20509;-86
2022/06/25 03:44:08;;;;;;;0.80;0.65;;;;;;;21.62;43.15;99327.38;5072779;28;20028;-82
2022/06/25 03:46:35;;;;;;;2.17;0.70;;;;;;;21.50;43.20;99323.97;5071600;28;20032;-81
2022/06/25 03:49:02;;;;;;;0.80;0.50;;;;;;;21.50;43.21;99328.72;5072028;28;20056;-82
2022/06/25 03:51:28;;;;;;;3.67;1.33;;;;;;;21.55;42.94;99337.38;5072512;28;20384;-81
2022/06/25 03:53:54;;;;;;;2.72;0.77;;;;;;;21.42;43.14;99341.94;5072433;28;20023;-81
2022/06/25 03:56:20;;;;;;;1.60;0.60;;;;;;;21.40;43.13;99349.94;5071064;28;20029;-81
2022/06/25 03:58:47;;;;;;;1.35;0.73;;;;;;;21.41;43.05;99350.72;5071377;28;20038;-81
2022/06/25 04:01:13;;;;;;;1.08;0.60;;;;;;;21.64;42.41;99352.75;5072545;28;20027;-82
2022/06/25 04:03:39;;;;;;;1.73;0.90;;;;;;;21.49;42.78;99361.28;5071603;28;20025;-81
2022/06/25 04:06:06;;;;;;;0.47;0.40;;;;;;;21.49;42.88;99352.97;5076450;28;20031;-87
2022/06/25 04:08:32;;;;;;;3.42;0.82;;;;;;;21.52;42.50;99357.66;5075062;28;20063;-81
2022/06/25 04:10:58;;;;;;;0.75;0.52;;;;;;;21.68;42.15;99375.69;5075097;28;20150;-81
2022/06/25 04:13:23;;;;;;;1.35;0.80;;;;;;;21.46;42.67;99362.16;5076430;28;20095;-82
2022/06/25 04:15:49;;;;;;;2.45;0.77;;;;;;;21.67;42.59;99377.69;5076245;28;20028;-86
2022/06/25 04:18:15;;;;;;;1.05;0.52;;;;;;;21.66;42.33;99369.78;5075113;28;20107;-80
2022/06/25 04:20:41;;;;;;;3.17;1.40;;;;;;;21.59;42.47;99384.56;5074934;28;20024;-82
2022/06/25 04:23:07;;;;;;;2.03;0.57;;;;;;;21.65;42.36;99387.66;5074773;28;20471;-85
2022/06/25 04:25:33;;;;;;;1.85;0.77;;;;;;;21.72;42.16;99387.56;5075783;28;20035;-81
2022/06/25 04:30:43;;;;;;;2.00;0.70;;;;;;;21.67;41.94;99401.91;5075714;28;20039;-85
2022/06/25 04:33:08;;;;;;;1.70;0.80;;;;;;;21.61;42.05;99398.81;5074498;28;20028;-81
2022/06/25 04:35:34;;;;;;;4.13;0.90;;;;;;;21.56;42.18;99397.31;5075639;28;20116;-81
2022/06/25 04:38:00;;;;;;;4.22;1.08;;;;;;;21.52;42.09;99413.25;5074416;28;20032;-81
2022/06/25 04:40:28;;;;;;;3.28;1.17;;;;;;;21.50;42.05;99415.66;5074262;28;20036;-81
2022/06/25 04:42:53;;;;;;;1.48;0.73;;;;;;;21.55;41.70;99423.53;5075613;28;20064;-81
2022/06/25 04:45:19;;;;;;;1.83;0.80;;;;;;;21.44;42.11;99411.00;5075864;28;20032;-81
2022/06/25 04:47:45;;;;;;;3.42;0.95;;;;;;;21.35;42.26;99425.41;5073974;28;20041;-80
2022/06/25 04:50:10;;;;;;;1.75;0.90;;;;;;;21.32;42.06;99429.03;5075564;28;20033;-87
2022/06/25 04:52:36;;;;;;;1.73;0.88;;;;;;;21.50;41.67;99429.56;5075557;28;20024;-80
2022/06/25 04:55:02;;;;;;;3.53;0.93;;;;;;;21.40;41.89;99438.84;5074475;28;20026;-81
2022/06/25 04:57:28;;;;;;;2.60;0.90;;;;;;;21.51;41.62;99444.25;5073996;28;20119;-80
2022/06/25 04:59:54;;;;;;;2.47;0.88;;;;;;;21.51;41.65;99445.03;5075377;28;20123;-80
2022/06/25 05:02:19;;;;;;;4.40;1.70;;;;;;;21.54;41.58;99441.41;5074097;28;20031;-86
2022/06/25 05:04:45;;;;;;;4.13;1.17;;;;;;;21.41;41.71;99448.75;5073924;28;20359;-81
2022/06/25 05:07:10;;;;;;;4.28;1.40;;;;;;;21.54;41.61;99446.97;5074923;28;20030;-81
2022/06/25 05:09:36;;;;;;;3.25;1.00;;;;;;;21.40;41.90;99455.50;5075345;28;20024;-81
2022/06/25 05:12:02;;;;;;;2.03;0.95;;;;;;;21.11;42.65;99452.28;5075190;28;20032;-81
2022/06/25 05:14:28;;;;;;;1.98;1.02;;;;;;;21.28;42.20;99465.16;5073700;28;20074;-80
2022/06/25 05:16:54;;;;;;;3.83;1.17;;;;;;;21.38;42.10;99463.44;5075135;28;20425;-81
2022/06/25 05:19:20;;;;;;;3.17;1.08;;;;;;;21.46;41.93;99456.63;5073569;28;20470;-81
2022/06/25 05:21:46;;;;;;;2.50;1.15;;;;;;;21.40;41.98;99461.06;5073610;28;20078;-87
2022/06/25 05:24:12;;;;;;;5.28;1.35;;;;;;;21.58;41.61;99469.94;5075028;28;20021;-81
2022/06/25 05:26:37;;;;;;;2.53;1.10;;;;;;;21.59;41.48;99474.28;5073546;28;20064;-81
2022/06/25 05:29:03;;;;;;;4.57;1.00;;;;;;;21.72;41.22;99479.28;5073326;28;20020;-82
2022/06/25 05:31:29;;;;;;;6.72;2.28;;;;;;;21.72;41.61;99482.06;5073320;28;20059;-81
2022/06/25 05:33:54;;;;;;;4.22;1.27;;;;;;;21.36;41.79;99482.53;5074764;28;20031;-82
2022/06/25 05:36:20;;;;;;;2.13;1.13;;;;;;;21.74;41.11;99488.78;5073060;28;20479;-82
2022/06/25 05:38:45;;;;;;;2.95;1.10;;;;;;;21.69;41.16;99494.00;5073154;28;20031;-89
2022/06/25 05:41:11;;;;;;;4.15;1.00;;;;;;;21.86;41.10;99493.00;5075153;28;20112;-82
2022/06/25 05:43:38;;;;;;;5.93;1.20;;;;;;;21.86;40.83;99499.34;5074566;28;20078;-82
2022/06/25 05:46:05;;;;;;;2.78;1.80;;;;;;;21.82;40.70;99498.59;5074578;28;20025;-83
2022/06/25 05:48:31;;;;;;;4.45;1.40;;;;;;;21.76;40.92;99502.25;5071643;28;20048;-82
2022/06/25 05:50:57;;;;;;;5.82;2.40;;;;;;;21.79;40.83;99501.44;5072047;28;20490;-81
2022/06/25 05:53:23;;;;;;;1.42;0.70;;;;;;;21.87;40.43;99500.13;5073315;28;20048;-81
2022/06/25 05:55:49;;;;;;;6.60;1.15;;;;;;;22.00;40.01;99505.91;5073134;28;20101;-82
2022/06/25 05:58:15;;;;;;;3.40;0.90;;;;;;;22.05;39.92;99516.53;5073132;28;20067;-80
2022/06/25 06:00:40;;;;;;;5.30;1.20;;;;;;;22.06;39.99;99513.31;5071819;28;20063;-81
2022/06/25 06:03:06;;;;;;;3.08;1.25;;;;;;;22.01;40.21;99516.59;5071799;28;20113;-82
2022/06/25 06:05:32;;;;;;;2.38;0.80;;;;;;;22.09;39.85;99517.31;5073039;28;20016;-81
2022/06/25 06:07:58;;;;;;;2.55;1.25;;;;;;;21.94;40.28;99515.91;5071529;28;20123;-81
2022/06/25 06:10:23;;;;;;;5.50;1.73;;;;;;;21.88;40.34;99512.81;5071613;28;20546;-82
2022/06/25 06:12:49;;;;;;;3.35;0.90;;;;;;;22.05;40.02;99517.31;5073074;28;20021;-86
2022/06/25 06:15:15;;;;;;;1.85;0.75;;;;;;;22.30;39.48;99518.97;5072415;28;20387;-81
2022/06/25 06:17:41;;;;;;;4.60;1.00;;;;;;;22.17;40.03;99526.34;5072539;28;20028;-84
2022/06/25 06:20:07;;;;;;;6.22;1.30;;;;;;;22.31;39.45;99528.91;5072240;28;20037;-87
2022/06/25 06:22:33;;;;;;;3.13;1.00;;;;;;;22.30;39.49;99532.91;5073255;28;20067;-81
2022/06/25 06:24:59;;;;;;;2.42;1.00;;;;;;;22.38;39.40;99546.28;5073545;28;20060;-84
2022/06/25 06:27:24;;;;;;;2.70;0.82;;;;;;;22.49;38.97;99539.75;5072693;28;20463;-82
2022/06/25 06:29:50;;;;;;;4.95;1.38;;;;;;;22.62;39.20;99549.06;5073422;28;20036;-87
2022/06/25 06:32:16;;;;;;;2.25;1.02;;;;;;;22.57;38.98;99547.53;5073589;28;20426;-85
2022/06/25 06:34:42;;;;;;;4.70;1.45;;;;;;;22.78;38.77;99542.81;5071685;28;20029;-81
2022/06/25 06:37:08;;;;;;;3.35;0.90;;;;;;;22.79;38.38;99539.63;5071339;28;20030;-86
2022/06/25 06:39:33;;;;;;;3.25;1.35;;;;;;;22.85;38.56;99559.41;5071471;28;20394;-85
2022/06/25 06:41:59;;;;;;;5.07;1.80;;;;;;;22.72;38.56;99553.66;5071895;28;20032;-83
2022/06/25 06:44:24;;;;;;;5.88;1.77;;;;;;;22.93;38.36;99560.88;5073373;28;20016;-82
2022/06/25 06:46:50;;;;;;;2.85;1.10;;;;;;;23.04;37.99;99563.47;5070848;28;20052;-85
2022/06/25 06:49:16;;;;;;;3.97;1.15;;;;;;;22.94;37.94;99563.25;5070924;28;20083;-84
2022/06/25 06:51:41;;;;;;;4.85;1.33;;;;;;;23.10;37.35;99573.69;5070886;28;20039;-85
2022/06/25 06:54:07;;;;;;;6.28;0.98;;;;;;;22.84;37.79;99560.63;5071553;28;20037;-83
2022/06/25 06:56:33;;;;;;;8.77;1.65;;;;;;;22.86;37.52;99572.16;5071304;28;20056;-81
2022/06/25 06:58:59;;;;;;;2.75;0.90;;;;;;;23.05;37.23;99574.22;5071423;28;20035;-81
2022/06/25 07:01:25;;;;;;;2.83;1.13;;;;;;;23.01;37.32;99587.41;5071190;28;20616;-82
2022/06/25 07:03:51;;;;;;;1.50;0.88;;;;;;;23.21;37.05;99565.94;5068112;28;20099;-81
2022/06/25 07:06:16;;;;;;;4.35;1.92;;;;;;;23.07;37.09;99573.78;5071858;28;20476;-86
2022/06/25 07:08:42;;;;;;;5.28;1.48;;;;;;;23.01;37.01;99573.47;5072204;28;20398;-81
2022/06/25 07:11:29;;;;;;;9.23;1.80;;;;;;;23.10;36.56;99572.91;5071734;28;20032;-81
2022/06/25 07:13:58;;;;;;;3.60;1.23;;;;;;;23.48;36.29;99578.94;5069440;28;20032;-81
2022/06/25 07:16:24;;;;;;;4.00;1.02;;;;;;;23.18;36.19;99577.13;5071757;28;20031;-80
2022/06/25 07:18:50;;;;;;;5.65;1.40;;;;;;;23.17;36.25;99573.56;5070127;28;20028;-81
2022/06/25 07:21:16;;;;;;;4.65;1.08;;;;;;;23.40;35.76;99572.72;5069077;28;20020;-81
2022/06/25 07:23:42;;;;;;;3.88;1.60;;;;;;;23.39;35.86;99573.94;5070603;28;20016;-81
2022/06/25 07:26:07;;;;;;;2.78;1.13;;;;;;;23.38;36.03;99577.16;5072236;28;20012;-86
2022/06/25 07:28:33;;;;;;;6.18;1.60;;;;;;;23.46;35.68;99584.97;5072767;28;20032;-85
2022/06/25 07:30:58;;;;;;;2.30;1.10;;;;;;;23.39;35.97;99585.09;5071446;28;20125;-88
2022/06/25 07:33:24;;;;;;;5.38;1.50;;;;;;;23.39;35.77;99593.47;5072040;28;20389;-86
2022/06/25 07:35:50;;;;;;;7.18;1.50;;;;;;;23.38;35.20;99586.31;5071985;28;20032;-87
2022/06/25 07:38:15;;;;;;;8.05;1.15;;;;;;;23.58;34.87;99577.97;5072307;28;20035;-85
2022/06/25 07:40:41;;;;;;;3.88;1.10;;;;;;;23.83;34.53;99580.25;5076377;28;20032;-82
2022/06/25 07:43:06;;;;;;;12.93;2.55;;;;;;;23.52;34.83;99585.25;5076981;28;20032;-86
2022/06/25 07:45:32;;;;;;;6.93;1.98;;;;;;;23.84;34.49;99590.19;5077005;28;20025;-86
2022/06/25 07:47:58;;;;;;;6.00;1.58;;;;;;;23.93;34.05;99600.75;5076724;28;20052;-85
2022/06/25 07:53:08;;;;;;;2.33;1.00;;;;;;;23.76;34.49;99597.94;5077322;28;20031;-85
2022/06/25 07:55:34;;;;;;;6.47;1.60;;;;;;;23.81;33.96;99607.81;5076634;28;20467;-84
2022/06/25 07:57:59;;;;;;;2.40;1.65;;;;;;;24.26;33.52;99598.84;5075322;28;20020;-81
2022/06/25 08:00:25;;;;;;;8.73;1.80;;;;;;;24.18;33.36;99606.59;5076990;28;20477;-84
2022/06/25 08:02:51;;;;;;;1.42;0.88;;;;;;;24.55;32.80;99607.38;5075660;28;20107;-82
2022/06/25 08:05:16;;;;;;;3.47;1.00;;;;;;;24.40;33.27;99598.53;5075426;28;20025;-86
2022/06/25 08:07:42;;;;;;;5.72;1.38;;;;;;;24.75;32.22;99604.50;5074934;28;20024;-83
2022/06/25 08:10:08;;;;;;;4.60;1.27;;;;;;;24.58;32.59;99595.34;5076584;28;20395;-83
2022/06/25 08:12:33;;;;;;;6.78;1.35;;;;;;;24.71;32.22;99610.19;5075636;28;20025;-87
2022/06/25 08:15:00;;;;;;;3.65;1.10;;;;;;;24.73;32.05;99610.53;5075861;28;20025;-82
2022/06/25 08:17:25;;;;;;;7.05;1.40;;;;;;;25.13;31.91;99591.56;5079008;28;20017;-85
2022/06/25 08:19:51;;;;;;;2.70;1.08;;;;;;;25.10;31.40;99600.06;5075278;28;20029;-88
2022/06/25 08:22:17;;;;;;;4.53;1.15;;;;;;;24.89;31.68;99604.16;5075731;28;20086;-90
2022/06/25 08:24:42;;;;;;;2.15;1.10;;;;;;;25.08;31.16;99597.66;5078672;28;20028;-88
2022/06/25 08:27:10;;;;;;;4.53;1.60;;;;;;;25.13;31.38;99596.38;5077465;28;20038;-84
2022/06/25 08:29:36;;;;;;;4.10;1.30;;;;;;;25.29;31.04;99599.13;5076336;28;20059;-93
2022/06/25 08:32:02;;;;;;;4.50;0.90;;;;;;;25.28;31.24;99597.56;5077500;28;20056;-91
2022/06/25 08:34:28;;;;;;;6.45;1.00;;;;;;;25.31;30.99;99607.06;5074758;28;20380;-90
2022/06/25 08:36:53;;;;;;;8.00;1.30;;;;;;;25.41;30.69;99601.19;5075415;28;20059;-86
2022/06/25 08:39:19;;;;;;;3.42;1.52;;;;;;;25.35;30.83;99597.34;5075109;28;20029;-86
2022/06/25 08:41:45;;;;;;;3.72;0.98;;;;;;;25.37;30.41;99611.69;5074299;28;20029;-78
2022/06/25 08:44:11;;;;;;;8.57;1.38;;;;;;;25.53;30.64;99621.25;5085860;28;20032;-82
2022/06/25 08:46:37;;;;;;;3.83;0.73;;;;;;;25.72;30.57;99609.94;5094980;28;20035;-81
2022/06/25 08:49:04;;;;;;;4.55;1.48;;;;;;;25.72;30.27;99623.13;5088061;28;20135;-82
2022/06/25 08:51:32;;;;;;;4.85;1.20;;;;;;;25.42;29.93;99613.16;5075277;28;20109;-80
2022/06/25 08:53:59;;;;;;;4.05;1.10;;;;;;;25.61;29.60;99617.81;5072867;28;20024;-79
2022/06/25 08:56:26;;;;;;;15.82;1.90;;;;;;;25.52;29.97;99625.28;5082750;28;20081;-81
2022/06/25 08:58:52;;;;;;;6.35;1.80;;;;;;;25.60;29.75;99621.03;5092861;28;20028;-80
2022/06/25 09:01:17;;;;;;;5.78;0.80;;;;;;;25.85;29.38;99629.56;5087101;28;20095;-85
2022/06/25 09:03:43;;;;;;;5.95;1.88;;;;;;;26.03;29.15;99622.66;5066383;28;20025;-81
2022/06/25 09:06:14;;;;;;;6.30;1.27;;;;;;;26.16;28.92;99631.84;5054835;28;20087;-87
2022/06/25 09:08:41;;;;;;;4.20;1.52;;;;;;;26.38;28.83;99629.19;5074856;28;20391;-90
2022/06/25 09:11:07;;;;;;;12.60;1.60;;;;;;;26.35;29.06;99628.06;5079811;28;20037;-81
2022/06/25 09:13:33;;;;;;;12.05;2.28;;;;;;;26.24;29.27;99631.19;5075378;28;20029;-81
2022/06/25 09:15:58;;;;;;;4.75;1.05;;;;;;;26.79;28.33;99628.28;5076474;28;20021;-80
2022/06/25 09:18:24;;;;;;;16.88;3.03;;;;;;;26.76;28.33;99632.00;5078428;28;20017;-82
2022/06/25 09:20:59;;;;;;;3.78;1.50;;;;;;;26.75;27.81;99630.41;5074358;28;20028;-80
2022/06/25 09:23:32;;;;;;;3.50;0.98;;;;;;;27.03;27.86;99628.69;5075526;28;20024;-81
2022/06/25 09:26:10;;;;;;;12.18;2.30;;;;;;;27.17;27.60;99633.84;5074126;28;20458;-82
2022/06/25 09:28:41;;;;;;;2.90;1.00;;;;;;;27.19;26.93;99628.56;5074424;28;20030;-90
2022/06/25 09:31:07;;;;;;;3.15;1.15;;;;;;;27.23;26.83;99631.25;5074723;28;20120;-88
2022/06/25 09:33:34;;;;;;;10.02;1.73;;;;;;;27.01;26.71;99625.56;5076017;28;20103;-82
2022/06/25 09:36:00;;;;;;;3.90;1.42;;;;;;;26.87;26.88;99624.00;5074334;28;20013;-88
2022/06/25 09:38:26;;;;;;;3.20;1.40;;;;;;;27.00;26.43;99621.97;5074718;28;20059;-80
2022/06/25 09:40:57;;;;;;;5.95;1.02;;;;;;;26.44;27.30;99614.19;5076223;28;20154;-81
2022/06/25 09:43:25;;;;;;;7.80;1.98;;;;;;;27.01;26.79;99620.75;5075297;28;20035;-81
2022/06/25 09:45:53;;;;;;;5.57;1.00;;;;;;;27.22;26.54;99633.28;5073631;28;20025;-80
2022/06/25 09:48:26;;;;;;;2.72;0.95;;;;;;;26.94;26.65;99628.59;5081646;28;20044;-80
2022/06/25 09:51:11;;;;;;;5.13;0.95;;;;;;;26.98;26.30;99635.66;5095201;28;20024;-82
2022/06/25 09:53:57;;;;;;;6.50;1.70;;;;;;;26.57;26.24;99633.00;5093690;28;20028;-81
2022/06/25 09:56:28;;;;;;;9.15;2.08;;;;;;;27.53;26.04;99643.81;5093321;28;20051;-83
2022/06/25 09:58:54;;;;;;;5.85;1.67;;;;;;;27.56;25.78;99632.47;5094016;28;20046;-88
2022/06/25 10:01:26;;;;;;;8.95;1.30;;;;;;;27.10;25.59;99642.50;5094130;28;20036;-83
2022/06/25 10:03:52;;;;;;;8.00;1.40;;;;;;;26.70;25.85;99617.78;5094886;28;20436;-83
2022/06/25 10:06:20;;;;;;;3.35;1.50;;;;;;;27.27;25.80;99624.25;5093145;28;20027;-86
2022/06/25 10:08:59;;;;;;;9.10;1.20;;;;;;;27.60;25.43;99610.69;5093403;28;20118;-88
2022/06/25 10:11:29;;;;;;;4.57;1.33;;;;;;;27.49;25.60;99624.28;5091389;28;20028;-83
2022/06/25 10:13:55;;;;;;;6.18;1.42;;;;;;;27.58;25.61;99624.38;5095281;28;20020;-88
2022/06/25 10:16:25;;;;;;;7.10;1.48;;;;;;;27.62;25.24;99622.22;5093789;28;20482;-86
2022/06/25 10:18:52;;;;;;;7.82;1.85;;;;;;;27.64;25.80;99614.13;5094116;28;20478;-89
2022/06/25 10:21:23;;;;;;;7.88;1.27;;;;;;;27.42;26.02;99618.16;5092857;28;20024;-84
2022/06/25 10:24:01;;;;;;;6.82;1.17;;;;;;;27.19;25.57;99616.56;5087766;28;20063;-83
2022/06/25 10:26:27;;;;;;;6.05;1.35;;;;;;;27.35;25.43;99627.59;5081106;28;20024;-84
2022/06/25 10:28:53;;;;;;;1.70;1.00;;;;;;;27.52;25.30;99617.00;5072791;28;20036;-83
2022/06/25 10:31:19;;;;;;;4.57;1.42;;;;;;;27.28;25.70;99619.44;5072548;28;20028;-84
2022/06/25 10:34:02;;;;;;;6.55;2.10;;;;;;;27.64;25.31;99610.53;5072467;28;20025;-88
2022/06/25 10:36:48;;;;;;;4.45;1.40;;;;;;;28.23;25.26;99622.00;5086956;28;20482;-86
2022/06/25 10:39:22;;;;;;;4.60;1.15;;;;;;;28.18;24.94;99620.56;5071736;28;20479;-88
2022/06/25 10:45:06;;;;;;;8.53;1.37;;;;;;;28.12;24.04;99617.59;5073271;28;20126;-83
2022/06/25 10:47:39;;;;;;;3.85;1.30;;;;;;;28.24;23.88;99615.13;5050580;28;20290;-84
2022/06/25 10:50:28;;;;;;;7.82;1.50;;;;;;;28.24;24.00;99613.09;5051479;28;20041;-88
2022/06/25 10:53:03;;;;;;;4.00;1.10;;;;;;;28.54;24.13;99627.63;5051609;28;20053;-83
2022/06/25 10:55:58;;;;;;;2.63;1.05;;;;;;;28.56;23.92;99619.50;5052760;28;20025;-88
2022/06/25 10:58:25;;;;;;;5.40;1.20;;;;;;;28.52;23.90;99597.19;5052846;28;20028;-83
2022/06/25 11:00:55;;;;;;;5.10;1.10;;;;;;;28.31;23.58;99595.22;5051376;28;20032;-83
2022/06/25 11:03:32;;;;;;;6.57;1.00;;;;;;;28.17;23.45;99604.97;5052096;28;20028;-86
2022/06/25 11:06:22;;;;;;;3.70;1.23;;;;;;;28.22;22.90;99595.94;5050921;28;20029;-83
2022/06/25 11:08:47;;;;;;;;;;;;;;;28.33;23.24;99599.13;5055231;28;20032;-84
2022/06/25 11:11:26;;;;;;;4.68;1.35;;;;;;;28.62;22.95;99590.31;5051064;28;19912;-86
2022/06/25 11:13:53;;;;;;;3.28;1.25;;;;;;;28.79;22.90;99584.44;5078090;28;20478;-83
2022/06/25 11:16:20;;;;;;;3.83;1.42;;;;;;;28.65;22.93;99586.59;5078795;28;20032;-84
2022/06/25 11:18:47;;;;;;;5.07;1.38;;;;;;;28.62;23.16;99593.13;5089116;28;20016;-83
2022/06/25 11:21:32;;;;;;;4.30;1.13;;;;;;;28.81;23.05;99598.81;5073603;28;20028;-83
2022/06/25 11:24:11;;;;;;;11.35;1.58;;;;;;;29.07;22.11;99574.81;5079786;28;20043;-83
2022/06/25 11:29:25;;;;;;;2.42;1.00;;;;;;;29.16;22.49;99580.44;5065373;28;20807;-85
2022/06/25 11:31:52;;;;;;;5.50;2.13;;;;;;;29.40;22.51;99591.09;5056382;28;20387;-82
2022/06/25 11:34:22;;;;;;;3.15;0.90;;;;;;;29.63;22.21;99578.44;5057274;28;20015;-84
2022/06/25 11:37:02;;;;;;;5.88;1.58;;;;;;;29.53;21.82;99586.88;5055829;28;20090;-88
2022/06/25 11:39:29;;;;;;;6.80;1.45;;;;;;;29.91;21.69;99573.50;5056016;28;20094;-84
2022/06/25 11:41:55;;;;;;;2.80;0.90;;;;;;;29.88;21.94;99568.84;5056278;28;20093;-84
2022/06/25 11:44:21;;;;;;;6.35;1.77;;;;;;;30.09;21.79;99567.84;5057495;28;20581;-85
2022/06/25 11:46:49;;;;;;;3.92;1.10;;;;;;;30.15;21.98;99565.94;5056097;28;20063;-82
2022/06/25 11:49:16;;;;;;;3.25;1.10;;;;;;;29.83;21.77;99571.00;5056442;28;20047;-84